This is the latest recevied weather packets stored in our database for station/object es2jt. If no packets are shown the sender has not sent any weather packets the latest 10 day(s).
| Time | Temp. | Humidity | Pressure | Rain* | Wind** | Luminosity | Snow |
|---|---|---|---|---|---|---|---|
| 1778277878 | 1.11° C | 85% | 1022.4 hPa | 0 mm | - | - | - |
| 1778277471 | 1.11° C | 85% | 1022.6 hPa | 0 mm | - | - | - |
| 1778266673 | 5.56° C | 64% | 1021.4 hPa | 0 mm | - | - | - |
| 1778259517 | 12.78° C | 35% | 1020.5 hPa | 0 mm | - | - | - |
| 1778257897 | 13.33° C | 35% | 1020.6 hPa | 0 mm | - | - | - |
| 1778256817 | 15.56° C | 31% | 1020.6 hPa | 0 mm | - | - | - |
| 1778256278 | 15° C | 32% | 1020.4 hPa | 0 mm | - | - | - |
| 1778254117 | 14.44° C | 32% | 1020.5 hPa | 0 mm | - | - | - |
| 1778252628 | 14.44° C | 32% | 1020.5 hPa | 0 mm | - | - | - |
| 1778250878 | 17.78° C | 27% | 1020.4 hPa | 0 mm | - | - | - |
| 1778247640 | 20° C | 23% | 1020.5 hPa | 0 mm | - | - | - |
| 1778245478 | 20° C | 20% | 1020.7 hPa | 0 mm | - | - | - |
| 1778242239 | 20° C | 21% | 1021 hPa | 0 mm | - | - | - |
| 1778241698 | 18.89° C | 23% | 1021.2 hPa | 0 mm | - | - | - |
| 1778238458 | 18.33° C | 26% | 1021 hPa | 0 mm | - | - | - |
| 1778234678 | 16.11° C | 25% | 1021.1 hPa | 0 mm | - | - | - |
| 1778233058 | 16.67° C | 29% | 1021 hPa | 0 mm | - | - | - |
| 1778232108 | 16.11° C | 33% | 1021.2 hPa | 0 mm | - | - | - |
| 1778231439 | 15.56° C | 34% | 1021 hPa | 0 mm | - | - | - |
| 1778225088 | 13.33° C | 44% | 1020.7 hPa | 0 mm | - | - | - |
| 1778222390 | 13.33° C | 44% | 1020.4 hPa | 0 mm | - | - | - |
| 1778216451 | 10° C | 58% | 1019.2 hPa | 0 mm | - | - | - |
| 1778215778 | 8.33° C | 63% | 1019.1 hPa | 0 mm | - | - | - |
| 1778213617 | 7.22° C | 63% | 1018.6 hPa | 0 mm | - | - | - |
| 1778209969 | 6.67° C | 72% | 1018 hPa | 0 mm | - | - | - |
* Rain latest hour (hover to see other rain measurements)
** Current wind speed in m/s (hover to see current wind gust speed)